Time;durP1;ratioP1;P1;durP2;ratioP2;P2;SDS_P1;SDS_P2;PMS_P1;PMS_P2;Temp;Humidity;BMP_temperature;BMP_pressure;BME280_temperature;BME280_humidity;BME280_pressure;Samples;Min_cycle;Max_cycle;Signal;HPM_P1;HPM_P2
2023/12/15 00:00:13;;;;;;;68.50;42.80;;;5.80;99.90;;;;;;5014458;28;20473;-71
2023/12/15 00:02:39;;;;;;;57.50;41.20;;;5.90;99.90;;;;;;5004787;28;20078;-70
2023/12/15 00:05:05;;;;;;;79.82;46.33;;;5.90;99.90;;;;;;4999814;28;20077;-71
2023/12/15 00:07:31;;;;;;;73.88;46.88;;;5.90;99.90;;;;;;4978140;28;20078;-71
2023/12/15 00:09:56;;;;;;;70.30;45.53;;;6.00;99.90;;;;;;4995142;28;20534;-71
2023/12/15 00:12:22;;;;;;;68.18;45.30;;;5.90;99.90;;;;;;5004229;28;20055;-71
2023/12/15 00:14:48;;;;;;;80.35;49.13;;;5.90;99.90;;;;;;4983975;28;20041;-71
2023/12/15 00:17:14;;;;;;;78.20;48.13;;;6.00;99.90;;;;;;5002814;28;20057;-70
2023/12/15 00:19:39;;;;;;;78.63;48.72;;;6.00;99.90;;;;;;4980084;28;20103;-70
2023/12/15 00:22:05;;;;;;;71.40;47.50;;;5.90;99.90;;;;;;5016913;28;20096;-72
2023/12/15 00:24:31;;;;;;;78.38;49.38;;;6.00;99.90;;;;;;4979862;28;20108;-72
2023/12/15 00:26:58;;;;;;;94.80;53.60;;;6.00;99.90;;;;;;4969071;28;20419;-71
2023/12/15 00:29:25;;;;;;;86.72;52.38;;;6.00;99.90;;;;;;5010743;28;20068;-71
2023/12/15 00:31:51;;;;;;;82.10;49.97;;;6.00;99.90;;;;;;4958575;28;20054;-71
2023/12/15 00:34:17;;;;;;;75.93;49.00;;;6.10;99.90;;;;;;4981763;28;20065;-71
2023/12/15 00:36:43;;;;;;;80.95;50.35;;;6.10;99.90;;;;;;4975650;28;20145;-72
2023/12/15 00:39:09;;;;;;;96.18;54.85;;;6.10;99.90;;;;;;4959516;28;20053;-71
2023/12/15 00:41:35;;;;;;;91.15;52.00;;;6.10;99.90;;;;;;4965586;28;20066;-72
2023/12/15 00:44:03;;;;;;;62.70;46.65;;;6.10;99.90;;;;;;4967952;28;20049;-72
2023/12/15 00:46:29;;;;;;;90.97;54.47;;;6.20;99.90;;;;;;4962394;28;20528;-72
2023/12/15 00:48:58;;;;;;;83.40;50.92;;;6.10;99.90;;;;;;5015080;28;20457;-71
2023/12/15 00:51:24;;;;;;;125.85;59.25;;;6.20;99.90;;;;;;4977350;28;20085;-75
2023/12/15 00:53:49;;;;;;;88.70;52.63;;;6.20;99.90;;;;;;4973399;28;20070;-75
2023/12/15 00:56:15;;;;;;;89.15;53.33;;;6.20;99.90;;;;;;4973688;28;20058;-74
2023/12/15 00:58:41;;;;;;;120.80;58.65;;;6.20;99.90;;;;;;4978037;28;20529;-74
2023/12/15 01:01:07;;;;;;;107.18;56.78;;;6.20;99.90;;;;;;4980593;28;20047;-73
2023/12/15 01:03:33;;;;;;;109.10;54.88;;;6.20;99.90;;;;;;4979520;28;20057;-74
2023/12/15 01:05:59;;;;;;;102.13;54.50;;;6.30;99.90;;;;;;4973757;28;20050;-74
2023/12/15 01:08:25;;;;;;;149.18;60.70;;;6.30;99.90;;;;;;4979131;28;20558;-70
2023/12/15 01:10:51;;;;;;;121.22;58.65;;;6.30;99.90;;;;;;4959311;28;20146;-71
2023/12/15 01:13:17;;;;;;;116.70;58.08;;;6.30;99.90;;;;;;4960837;28;20469;-71
2023/12/15 01:15:43;;;;;;;130.98;60.83;;;6.30;99.90;;;;;;4981134;28;20132;-71
2023/12/15 01:18:08;;;;;;;129.98;59.45;;;6.30;99.90;;;;;;4984409;28;20485;-72
2023/12/15 01:20:34;;;;;;;144.30;61.40;;;6.30;99.90;;;;;;4973008;28;20093;-72
2023/12/15 01:23:00;;;;;;;141.43;61.35;;;6.30;99.90;;;;;;4960785;28;20108;-72
2023/12/15 01:25:26;;;;;;;97.50;55.17;;;6.30;99.90;;;;;;4969037;28;20046;-72
2023/12/15 01:27:52;;;;;;;161.52;62.63;;;6.30;99.90;;;;;;4978077;28;20046;-72
2023/12/15 01:30:17;;;;;;;164.27;64.80;;;6.40;99.90;;;;;;4979137;28;20081;-72
2023/12/15 01:32:43;;;;;;;134.27;62.72;;;6.40;99.90;;;;;;4978625;28;20041;-72
2023/12/15 01:35:09;;;;;;;138.18;61.85;;;6.40;99.90;;;;;;4958589;28;20050;-72
2023/12/15 01:37:35;;;;;;;105.85;56.88;;;6.40;99.90;;;;;;4977827;28;20046;-72
2023/12/15 01:40:01;;;;;;;153.20;63.67;;;6.40;99.90;;;;;;5011059;28;20050;-72
2023/12/15 01:42:27;;;;;;;125.13;59.80;;;6.40;99.90;;;;;;4982250;28;20053;-72
2023/12/15 01:44:53;;;;;;;99.68;56.80;;;6.40;99.90;;;;;;4994310;28;20046;-72
2023/12/15 01:47:19;;;;;;;116.40;59.83;;;6.40;99.90;;;;;;4963351;28;20142;-72
2023/12/15 01:49:47;;;;;;;124.07;61.10;;;6.50;99.90;;;;;;4973348;28;20046;-72
2023/12/15 01:52:13;;;;;;;152.90;64.20;;;6.40;99.90;;;;;;4980230;28;20447;-72
2023/12/15 01:54:38;;;;;;;133.43;61.80;;;6.50;99.90;;;;;;4969459;28;20050;-72
2023/12/15 01:57:06;;;;;;;138.40;63.67;;;6.50;99.90;;;;;;4979924;28;20138;-72
2023/12/15 01:59:47;;;;;;;156.73;65.03;;;6.50;99.90;;;;;;4981347;28;20076;-72
2023/12/15 02:02:13;;;;;;;;;;;6.60;99.90;;;;;;4979421;28;20074;-72
2023/12/15 02:04:39;;;;;;;183.52;71.30;;;6.50;99.90;;;;;;4967357;28;20404;-73
2023/12/15 02:07:05;;;;;;;183.32;68.43;;;6.50;99.90;;;;;;4964614;28;20054;-72
2023/12/15 02:09:30;;;;;;;130.25;62.47;;;6.50;99.90;;;;;;5015587;28;20043;-72
2023/12/15 02:11:56;;;;;;;107.70;59.60;;;6.60;99.90;;;;;;4982508;28;20074;-72
2023/12/15 02:14:23;;;;;;;161.68;66.45;;;6.60;99.90;;;;;;4980891;28;20084;-72
2023/12/15 02:16:48;;;;;;;163.10;67.03;;;6.60;99.90;;;;;;4982242;28;20046;-72
2023/12/15 02:19:14;;;;;;;151.88;66.47;;;6.60;99.90;;;;;;4965801;28;20169;-72
2023/12/15 02:21:40;;;;;;;159.88;66.82;;;6.60;99.90;;;;;;5004339;28;20106;-72
2023/12/15 02:24:09;;;;;;;199.48;74.65;;;6.60;99.90;;;;;;4979855;28;20053;-72
2023/12/15 02:26:35;;;;;;;157.30;69.00;;;6.60;99.90;;;;;;4960273;28;20050;-72
2023/12/15 02:29:00;;;;;;;177.10;70.90;;;6.70;99.90;;;;;;4977067;28;20115;-72
2023/12/15 02:31:26;;;;;;;186.40;71.35;;;6.70;99.90;;;;;;4980769;28;20050;-72
2023/12/15 02:33:54;;;;;;;181.55;71.07;;;6.70;99.90;;;;;;4965697;28;20471;-72
2023/12/15 02:36:21;;;;;;;174.95;71.70;;;6.70;99.90;;;;;;4995795;28;20469;-73
2023/12/15 02:38:47;;;;;;;189.35;73.38;;;6.70;99.90;;;;;;4957313;28;20532;-72
2023/12/15 02:41:13;;;;;;;142.02;65.57;;;6.70;99.90;;;;;;4983078;28;20050;-72
2023/12/15 02:43:39;;;;;;;126.90;61.38;;;6.70;99.90;;;;;;4979979;28;20080;-72
2023/12/15 02:46:05;;;;;;;161.38;67.93;;;6.80;99.90;;;;;;4965321;28;20053;-72
2023/12/15 02:48:32;;;;;;;165.63;64.80;;;6.70;99.90;;;;;;4965142;28;20084;-72
2023/12/15 02:50:58;;;;;;;152.80;67.07;;;6.70;99.90;;;;;;4966616;28;20531;-72
2023/12/15 02:53:24;;;;;;;188.35;69.75;;;6.80;99.90;;;;;;5014609;28;20092;-75
2023/12/15 02:55:49;;;;;;;172.25;67.22;;;6.80;99.90;;;;;;4996480;28;20042;-75
2023/12/15 02:58:18;;;;;;;152.90;65.55;;;6.80;99.90;;;;;;4998954;28;20276;-75
2023/12/15 03:00:46;;;;;;;143.48;64.15;;;6.80;99.90;;;;;;5010164;28;20095;-75
2023/12/15 03:03:12;;;;;;;172.15;69.95;;;6.80;99.90;;;;;;4991426;28;20499;-75
2023/12/15 03:05:38;;;;;;;177.05;68.07;;;6.80;99.90;;;;;;4975788;28;20464;-72
2023/12/15 03:08:04;;;;;;;141.73;65.85;;;6.80;99.90;;;;;;4964316;28;20051;-73
2023/12/15 03:10:30;;;;;;;160.02;67.03;;;6.80;99.90;;;;;;4966844;28;20165;-72
2023/12/15 03:12:56;;;;;;;159.48;66.75;;;6.80;99.90;;;;;;4992481;28;20150;-72
2023/12/15 03:15:28;;;;;;;184.57;70.20;;;6.80;99.90;;;;;;4975781;28;20034;-72
2023/12/15 03:17:54;;;;;;;202.65;70.95;;;6.80;99.90;;;;;;4977121;28;20497;-72
2023/12/15 03:20:20;;;;;;;191.02;70.05;;;6.80;99.90;;;;;;4965511;28;20054;-72
2023/12/15 03:22:49;;;;;;;205.20;72.35;;;6.80;99.90;;;;;;5009706;28;20046;-72
2023/12/15 03:25:14;;;;;;;203.77;70.45;;;6.80;99.90;;;;;;4962457;28;20096;-72
2023/12/15 03:27:40;;;;;;;183.75;69.43;;;6.80;99.90;;;;;;4972477;28;20435;-71
2023/12/15 03:30:06;;;;;;;161.07;65.40;;;6.90;99.90;;;;;;4965821;28;20034;-72
2023/12/15 03:32:32;;;;;;;158.25;62.30;;;6.90;99.90;;;;;;4964101;28;20042;-72
2023/12/15 03:34:58;;;;;;;226.07;72.70;;;6.90;99.90;;;;;;4989054;28;20053;-72
2023/12/15 03:37:24;;;;;;;157.15;64.85;;;6.90;99.90;;;;;;4981080;28;20057;-71
2023/12/15 03:39:49;;;;;;;169.43;64.43;;;6.90;99.90;;;;;;4998452;28;20072;-72
2023/12/15 03:42:15;;;;;;;150.90;64.63;;;6.90;99.90;;;;;;5018793;28;20831;-72
2023/12/15 03:44:41;;;;;;;168.00;63.25;;;6.90;99.90;;;;;;4964273;28;20049;-72
2023/12/15 03:47:08;;;;;;;156.02;62.05;;;6.90;99.90;;;;;;5016417;28;20054;-71
2023/12/15 03:49:34;;;;;;;165.90;64.32;;;6.90;99.90;;;;;;4996952;28;20109;-72
2023/12/15 03:52:00;;;;;;;190.95;67.97;;;6.90;99.90;;;;;;5012416;28;20053;-72
2023/12/15 03:54:26;;;;;;;182.55;67.93;;;6.90;99.90;;;;;;4967379;28;20047;-72
2023/12/15 03:56:56;;;;;;;176.82;67.47;;;6.90;99.90;;;;;;4969583;28;20042;-72
2023/12/15 03:59:23;;;;;;;184.60;66.10;;;6.90;99.90;;;;;;4986733;28;20498;-71
2023/12/15 04:01:48;;;;;;;147.68;62.67;;;6.90;99.90;;;;;;4963039;28;20155;-72
2023/12/15 04:04:14;;;;;;;191.07;66.93;;;6.90;99.90;;;;;;4960076;28;20050;-72
2023/12/15 04:06:40;;;;;;;138.38;60.13;;;6.90;99.90;;;;;;4970522;28;20035;-72
2023/12/15 04:09:06;;;;;;;158.35;61.58;;;6.90;99.90;;;;;;4993903;28;20139;-71
2023/12/15 04:11:31;;;;;;;151.40;60.42;;;6.90;99.90;;;;;;4978463;28;20084;-71
2023/12/15 04:13:57;;;;;;;189.88;64.43;;;6.90;99.90;;;;;;4977319;28;20046;-71
2023/12/15 04:16:23;;;;;;;170.57;64.03;;;6.80;99.90;;;;;;4995808;28;20135;-72
2023/12/15 04:18:49;;;;;;;221.43;69.43;;;6.90;99.90;;;;;;4960042;28;20046;-72
2023/12/15 04:21:15;;;;;;;124.40;57.03;;;6.90;99.90;;;;;;4997668;28;20054;-71
2023/12/15 04:23:40;;;;;;;167.63;60.83;;;6.90;99.90;;;;;;4966266;28;20117;-72
2023/12/15 04:26:07;;;;;;;118.30;56.08;;;6.90;99.90;;;;;;4976711;28;20129;-72
2023/12/15 04:28:33;;;;;;;160.75;61.38;;;6.90;99.90;;;;;;4990869;28;20053;-73
2023/12/15 04:30:58;;;;;;;199.52;62.17;;;6.90;99.90;;;;;;5012399;28;20038;-70
2023/12/15 04:33:24;;;;;;;230.00;66.60;;;6.90;99.90;;;;;;4974236;28;20057;-71
2023/12/15 04:35:51;;;;;;;247.63;67.80;;;6.90;99.90;;;;;;4964999;28;20103;-72
2023/12/15 04:38:17;;;;;;;251.93;66.90;;;6.90;99.90;;;;;;4957763;28;20449;-71
2023/12/15 04:40:43;;;;;;;281.40;72.07;;;6.90;99.90;;;;;;4978404;28;20061;-71
2023/12/15 04:43:09;;;;;;;210.77;65.15;;;6.80;99.90;;;;;;5004966;28;20099;-71
2023/12/15 04:45:35;;;;;;;204.23;63.45;;;6.80;99.90;;;;;;4980899;28;20458;-72
2023/12/15 04:48:01;;;;;;;212.60;63.05;;;6.80;99.90;;;;;;4996168;28;20117;-72
2023/12/15 04:50:27;;;;;;;212.60;64.70;;;6.70;99.90;;;;;;5009423;28;20054;-72
2023/12/15 04:52:52;;;;;;;307.52;74.82;;;6.80;99.90;;;;;;4976850;28;20065;-71
2023/12/15 04:55:18;;;;;;;221.98;64.65;;;6.80;99.90;;;;;;4965697;28;20054;-72
2023/12/15 04:57:44;;;;;;;244.88;67.40;;;6.80;99.90;;;;;;4954145;28;20047;-72
2023/12/15 05:00:10;;;;;;;261.42;68.22;;;6.80;99.90;;;;;;4998591;28;20053;-72
2023/12/15 05:02:36;;;;;;;248.50;66.35;;;6.80;99.90;;;;;;4961630;28;20129;-71
2023/12/15 05:05:02;;;;;;;168.65;58.67;;;6.80;99.90;;;;;;5009531;28;20038;-71
2023/12/15 05:07:28;;;;;;;220.90;64.97;;;6.70;99.90;;;;;;4972494;28;20533;-72
2023/12/15 05:09:54;;;;;;;170.00;58.90;;;6.70;99.90;;;;;;4994458;28;20038;-72
2023/12/15 05:12:20;;;;;;;146.00;55.33;;;6.70;99.90;;;;;;4966736;28;20081;-71
2023/12/15 05:14:46;;;;;;;205.70;61.38;;;6.60;99.90;;;;;;5012660;28;20078;-72
2023/12/15 05:17:12;;;;;;;171.52;57.60;;;6.60;99.90;;;;;;5008297;28;20127;-71
2023/12/15 05:19:38;;;;;;;165.75;56.83;;;6.50;99.90;;;;;;4978511;28;20038;-71
2023/12/15 05:22:03;;;;;;;157.70;56.28;;;6.50;99.90;;;;;;4982290;28;20120;-71
2023/12/15 05:24:32;;;;;;;140.45;54.20;;;6.40;99.90;;;;;;4960626;28;20070;-71
2023/12/15 05:26:58;;;;;;;138.30;54.25;;;6.50;99.90;;;;;;4980206;28;20046;-72
2023/12/15 05:29:24;;;;;;;117.15;52.00;;;6.50;99.90;;;;;;4960810;28;20042;-72
2023/12/15 05:31:50;;;;;;;163.55;57.22;;;6.40;99.90;;;;;;4966795;28;20111;-72
2023/12/15 05:34:15;;;;;;;129.02;52.50;;;6.40;99.90;;;;;;4975624;28;20485;-72
2023/12/15 05:36:41;;;;;;;129.85;52.25;;;6.30;99.90;;;;;;4980507;28;20053;-72
2023/12/15 05:39:07;;;;;;;93.05;46.88;;;6.40;99.90;;;;;;4978753;28;20045;-72
2023/12/15 05:41:33;;;;;;;141.43;52.88;;;6.40;99.90;;;;;;4963778;28;20133;-72
2023/12/15 05:43:58;;;;;;;149.05;55.53;;;6.40;99.90;;;;;;5010670;28;21083;-71
2023/12/15 05:46:24;;;;;;;142.95;56.88;;;6.40;99.90;;;;;;4977585;28;20054;-71
2023/12/15 05:48:50;;;;;;;150.55;55.58;;;6.40;99.90;;;;;;5012582;28;20131;-71
2023/12/15 05:51:16;;;;;;;107.60;52.90;;;6.40;99.90;;;;;;4978866;28;20130;-71
2023/12/15 05:53:42;;;;;;;162.00;59.63;;;6.40;99.90;;;;;;4979144;28;20043;-71
2023/12/15 05:56:08;;;;;;;167.60;58.50;;;6.50;99.90;;;;;;5008934;28;20049;-71
2023/12/15 05:58:34;;;;;;;160.00;59.63;;;6.40;99.90;;;;;;4981054;28;20125;-71
2023/12/15 06:00:59;;;;;;;193.40;61.67;;;6.40;99.90;;;;;;4976970;28;20443;-71
2023/12/15 06:03:26;;;;;;;161.23;58.17;;;6.40;99.90;;;;;;5010829;28;20125;-71
2023/12/15 06:05:51;;;;;;;117.78;50.88;;;6.40;99.90;;;;;;4960185;28;20035;-72
2023/12/15 06:08:17;;;;;;;99.45;48.60;;;6.40;99.90;;;;;;5011475;28;20049;-72
2023/12/15 06:10:43;;;;;;;143.23;54.30;;;6.40;99.90;;;;;;4977689;28;20055;-72
2023/12/15 06:13:10;;;;;;;125.63;52.00;;;6.30;99.90;;;;;;4977496;28;20662;-72
2023/12/15 06:15:36;;;;;;;132.65;53.85;;;6.40;99.90;;;;;;4979510;28;20046;-72
2023/12/15 06:18:04;;;;;;;202.15;60.55;;;6.30;99.90;;;;;;4964002;28;20086;-72
2023/12/15 06:20:30;;;;;;;182.68;58.90;;;6.30;99.90;;;;;;4978236;28;20563;-72
2023/12/15 06:22:59;;;;;;;143.77;53.50;;;6.30;99.90;;;;;;4979165;28;20058;-72
2023/12/15 06:25:28;;;;;;;133.48;55.15;;;6.30;99.90;;;;;;4958855;28;20057;-76
2023/12/15 06:27:57;;;;;;;111.10;47.80;;;6.30;99.90;;;;;;4975839;28;20042;-76
2023/12/15 06:30:23;;;;;;;95.75;45.88;;;6.30;99.90;;;;;;5008729;28;20047;-76
2023/12/15 06:32:52;;;;;;;170.25;55.60;;;6.30;99.90;;;;;;4993328;28;20615;-76
2023/12/15 06:35:17;;;;;;;161.82;52.83;;;6.20;99.90;;;;;;4995091;28;20576;-76
2023/12/15 06:37:43;;;;;;;174.85;55.85;;;6.30;99.90;;;;;;4978506;28;20295;-76
2023/12/15 06:40:10;;;;;;;222.77;59.45;;;6.30;99.90;;;;;;4979945;28;20042;-73
2023/12/15 06:42:35;;;;;;;146.70;51.08;;;6.30;99.90;;;;;;4975635;28;20054;-73
2023/12/15 06:45:07;;;;;;;224.43;59.55;;;6.30;99.90;;;;;;4982084;28;20057;-73
2023/12/15 06:47:35;;;;;;;190.07;55.35;;;6.30;99.90;;;;;;4981015;28;20133;-73
2023/12/15 06:50:00;;;;;;;95.30;45.08;;;6.30;99.90;;;;;;4977933;28;20187;-73
2023/12/15 06:52:26;;;;;;;178.23;53.65;;;6.30;99.90;;;;;;4997250;28;20068;-71
2023/12/15 06:54:52;;;;;;;224.13;56.00;;;6.40;99.90;;;;;;4980493;28;20066;-71
2023/12/15 06:57:17;;;;;;;308.40;60.33;;;6.40;99.90;;;;;;4978525;28;20073;-71
2023/12/15 06:59:43;;;;;;;250.52;55.13;;;6.40;99.90;;;;;;4982209;28;20042;-75
2023/12/15 07:02:09;;;;;;;345.95;63.67;;;6.40;99.90;;;;;;4962297;28;20052;-75
2023/12/15 07:04:35;;;;;;;165.00;48.92;;;6.40;99.90;;;;;;5009225;28;20054;-71
2023/12/15 07:07:01;;;;;;;241.93;55.65;;;6.40;99.90;;;;;;4978444;28;20046;-71
2023/12/15 07:09:27;;;;;;;133.73;44.50;;;6.40;99.90;;;;;;4981832;28;20383;-72
2023/12/15 07:11:54;;;;;;;218.05;52.45;;;6.40;99.90;;;;;;4978290;28;20046;-71
2023/12/15 07:14:19;;;;;;;117.20;43.03;;;6.50;99.90;;;;;;5012491;28;20046;-71
2023/12/15 07:16:45;;;;;;;273.30;55.00;;;6.50;99.90;;;;;;4996181;28;20516;-72
2023/12/15 07:19:14;;;;;;;82.85;39.40;;;6.50;99.90;;;;;;5006135;28;20053;-76
2023/12/15 07:21:39;;;;;;;330.08;60.70;;;6.50;99.90;;;;;;4961975;28;20091;-75
2023/12/15 07:24:05;;;;;;;117.25;43.33;;;6.50;99.90;;;;;;4981551;28;20066;-72
2023/12/15 07:26:31;;;;;;;359.40;64.93;;;6.50;99.90;;;;;;4994523;28;20486;-72
2023/12/15 07:28:57;;;;;;;373.52;65.65;;;6.50;99.90;;;;;;5011453;28;20054;-72
2023/12/15 07:31:23;;;;;;;185.07;50.47;;;6.50;99.90;;;;;;4980468;28;20062;-72
2023/12/15 07:33:48;;;;;;;361.25;65.95;;;6.50;99.90;;;;;;4981013;28;20757;-72
2023/12/15 07:36:14;;;;;;;233.35;54.28;;;6.50;99.90;;;;;;4980384;28;20141;-76
2023/12/15 07:38:40;;;;;;;94.60;42.70;;;6.50;99.90;;;;;;4981949;28;20121;-75
2023/12/15 07:41:06;;;;;;;272.13;58.80;;;6.50;99.90;;;;;;4978972;28;20062;-73
2023/12/15 07:43:32;;;;;;;234.23;55.35;;;6.50;99.90;;;;;;4965380;28;20054;-73
2023/12/15 07:45:57;;;;;;;236.02;57.05;;;6.50;99.90;;;;;;4978577;28;20088;-73
2023/12/15 07:48:23;;;;;;;185.18;51.47;;;6.50;99.90;;;;;;5012169;28;20081;-72
2023/12/15 07:50:50;;;;;;;141.30;47.08;;;6.50;99.90;;;;;;4980134;28;20043;-72
2023/12/15 07:53:15;;;;;;;198.52;53.00;;;6.50;99.90;;;;;;4996384;28;20046;-72
2023/12/15 07:55:41;;;;;;;226.20;55.08;;;6.50;99.90;;;;;;4997364;28;20073;-73
2023/12/15 07:58:10;;;;;;;192.52;51.80;;;6.40;99.90;;;;;;4977828;28;20402;-73
2023/12/15 08:00:36;;;;;;;249.18;56.92;;;6.40;99.90;;;;;;5015531;28;20042;-73
2023/12/15 08:03:02;;;;;;;262.60;59.33;;;6.40;99.90;;;;;;4978843;28;20494;-73
2023/12/15 08:05:27;;;;;;;218.55;54.88;;;6.40;99.90;;;;;;4962454;28;20081;-73
2023/12/15 08:07:53;;;;;;;206.93;53.58;;;6.40;99.90;;;;;;4982492;28;20057;-73
2023/12/15 08:10:19;;;;;;;197.15;51.42;;;6.40;99.90;;;;;;4978203;28;20074;-77
2023/12/15 08:12:45;;;;;;;224.32;56.72;;;6.40;99.90;;;;;;4993155;28;20050;-77
2023/12/15 08:15:10;;;;;;;182.77;51.08;;;6.40;99.90;;;;;;4979484;28;20425;-75
2023/12/15 08:17:36;;;;;;;197.55;52.28;;;6.30;99.90;;;;;;4982334;28;20046;-71
2023/12/15 08:20:02;;;;;;;166.80;47.17;;;6.40;99.90;;;;;;4978048;28;20050;-72
2023/12/15 08:22:28;;;;;;;166.38;48.67;;;6.30;99.90;;;;;;4980961;28;20046;-72
2023/12/15 08:24:54;;;;;;;172.70;47.05;;;6.40;99.90;;;;;;4963636;28;20496;-72
2023/12/15 08:27:21;;;;;;;170.73;48.10;;;6.30;99.90;;;;;;4996473;28;20085;-72
2023/12/15 08:29:47;;;;;;;108.40;40.13;;;6.30;99.90;;;;;;4975400;28;20129;-76
2023/12/15 08:32:12;;;;;;;173.75;48.33;;;6.30;99.90;;;;;;4980290;28;20153;-76
2023/12/15 08:34:39;;;;;;;132.65;42.28;;;6.30;99.90;;;;;;4976963;28;20587;-76
2023/12/15 08:37:05;;;;;;;103.00;39.10;;;6.30;99.90;;;;;;4981920;28;20473;-76
2023/12/15 08:39:31;;;;;;;136.13;43.00;;;6.40;99.90;;;;;;4976244;28;20107;-77
2023/12/15 08:41:57;;;;;;;116.45;41.20;;;6.40;99.90;;;;;;4980272;28;20507;-76
2023/12/15 08:44:22;;;;;;;114.15;39.05;;;6.40;99.90;;;;;;4979928;28;20605;-72
2023/12/15 08:46:48;;;;;;;130.82;39.10;;;6.40;99.90;;;;;;4977856;28;20039;-72
2023/12/15 08:49:14;;;;;;;102.70;38.78;;;6.40;99.90;;;;;;4965603;28;20057;-72
2023/12/15 08:51:40;;;;;;;137.40;40.05;;;6.50;99.90;;;;;;4980200;28;20046;-72
2023/12/15 08:54:06;;;;;;;102.28;40.35;;;6.50;99.90;;;;;;4964228;28;20046;-72
2023/12/15 08:56:31;;;;;;;97.05;38.33;;;6.50;99.90;;;;;;4979648;28;20546;-72
2023/12/15 08:58:57;;;;;;;124.22;40.53;;;6.50;99.90;;;;;;4977232;28;20046;-72
2023/12/15 09:01:23;;;;;;;100.32;38.35;;;6.60;99.90;;;;;;4978785;28;20056;-72
2023/12/15 09:03:49;;;;;;;97.22;38.38;;;6.60;99.90;;;;;;4977416;28;20043;-72
2023/12/15 09:06:15;;;;;;;108.95;39.15;;;6.60;99.90;;;;;;4978686;28;20058;-72
2023/12/15 09:08:41;;;;;;;96.22;36.60;;;6.70;99.90;;;;;;4977754;28;20050;-72
2023/12/15 09:11:07;;;;;;;97.45;36.90;;;6.70;99.90;;;;;;4974183;28;20487;-72
2023/12/15 09:13:34;;;;;;;83.18;32.83;;;6.70;99.90;;;;;;4994863;28;20060;-77
2023/12/15 09:16:00;;;;;;;85.88;34.08;;;6.70;99.90;;;;;;4980575;28;20046;-76
2023/12/15 09:18:26;;;;;;;89.50;35.15;;;6.70;99.90;;;;;;4979503;28;20054;-76
2023/12/15 09:20:52;;;;;;;101.28;35.50;;;6.70;99.90;;;;;;4977927;28;20057;-77
2023/12/15 09:23:19;;;;;;;90.05;34.25;;;6.80;99.90;;;;;;4977555;28;20077;-76
2023/12/15 09:25:49;;;;;;;68.80;31.65;;;6.80;99.90;;;;;;4970004;28;20050;-76
2023/12/15 09:28:15;;;;;;;70.32;29.67;;;6.80;99.90;;;;;;5006452;28;20525;-71
2023/12/15 09:30:41;;;;;;;90.38;33.38;;;6.90;99.90;;;;;;4974040;28;20077;-71
2023/12/15 09:33:06;;;;;;;86.00;32.75;;;6.80;99.90;;;;;;4959476;28;20070;-71
2023/12/15 09:35:32;;;;;;;80.57;29.88;;;6.90;99.90;;;;;;4959892;28;20401;-71
2023/12/15 09:37:58;;;;;;;74.43;30.55;;;6.90;99.90;;;;;;4979935;28;20561;-71
2023/12/15 09:40:29;;;;;;;80.97;31.27;;;6.90;99.90;;;;;;4979580;28;20048;-71
2023/12/15 09:42:58;;;;;;;70.25;28.30;;;6.90;99.90;;;;;;5003393;28;20054;-72
2023/12/15 09:45:24;;;;;;;88.30;29.52;;;6.90;99.90;;;;;;5007161;28;20840;-71
2023/12/15 09:47:53;;;;;;;72.95;27.77;;;7.00;99.90;;;;;;4991778;28;20047;-72
2023/12/15 09:50:23;;;;;;;68.90;25.87;;;7.00;99.90;;;;;;4978332;28;20402;-71
2023/12/15 09:52:50;;;;;;;65.80;26.48;;;7.00;99.90;;;;;;4958138;28;20081;-71
2023/12/15 09:55:17;;;;;;;71.45;28.77;;;7.00;99.90;;;;;;4981261;28;20284;-71
2023/12/15 09:57:43;;;;;;;74.30;27.02;;;7.00;99.90;;;;;;4990385;28;20407;-71
2023/12/15 10:00:09;;;;;;;66.30;27.27;;;7.00;99.90;;;;;;4979785;28;20053;-71
2023/12/15 10:02:38;;;;;;;72.07;27.88;;;7.10;99.90;;;;;;5002317;28;20104;-71
2023/12/15 10:05:04;;;;;;;74.72;28.35;;;7.10;99.90;;;;;;5002849;28;20047;-71
2023/12/15 10:07:30;;;;;;;67.90;26.13;;;7.10;99.90;;;;;;4991539;28;20046;-71
2023/12/15 10:09:56;;;;;;;67.00;26.30;;;7.10;99.90;;;;;;4975277;28;20394;-71
2023/12/15 10:12:22;;;;;;;57.88;25.38;;;7.20;99.90;;;;;;4978062;28;20065;-72
2023/12/15 10:14:47;;;;;;;61.70;25.42;;;7.30;99.90;;;;;;4976641;28;20051;-71
2023/12/15 10:17:13;;;;;;;59.28;26.80;;;7.30;99.90;;;;;;4984878;28;20043;-71
2023/12/15 10:19:39;;;;;;;68.07;26.35;;;7.30;99.90;;;;;;4984811;28;20046;-71
2023/12/15 10:22:05;;;;;;;65.22;25.27;;;7.40;99.90;;;;;;5016212;28;20081;-71
2023/12/15 10:24:33;;;;;;;66.63;24.98;;;7.40;99.90;;;;;;4978724;28;20062;-72
2023/12/15 10:27:02;;;;;;;60.90;23.80;;;7.40;99.90;;;;;;5016879;28;20530;-71
2023/12/15 10:29:28;;;;;;;59.17;22.73;;;7.50;99.90;;;;;;4973807;28;20043;-71
2023/12/15 10:31:54;;;;;;;55.67;22.45;;;7.50;99.90;;;;;;4998657;28;20442;-71
2023/12/15 10:34:27;;;;;;;56.38;21.58;;;7.50;99.90;;;;;;5002820;28;20050;-71
2023/12/15 10:36:53;;;;;;;57.70;22.50;;;7.60;99.90;;;;;;4979366;28;20043;-71
2023/12/15 10:39:20;;;;;;;56.95;21.15;;;7.60;99.90;;;;;;4982286;28;20048;-71
2023/12/15 10:41:47;;;;;;;57.78;21.67;;;7.60;99.90;;;;;;4960913;28;20042;-71
2023/12/15 10:44:14;;;;;;;61.20;20.08;;;7.60;99.90;;;;;;4992234;28;20722;-71
2023/12/15 10:46:44;;;;;;;50.40;17.95;;;7.70;99.90;;;;;;5008243;28;20525;-71
2023/12/15 10:49:11;;;;;;;55.90;16.98;;;7.70;99.90;;;;;;5009251;28;20042;-71
2023/12/15 10:51:41;;;;;;;43.67;16.60;;;7.70;99.90;;;;;;4970356;28;20074;-71
2023/12/15 10:54:08;;;;;;;;;;;7.80;99.90;;;;;;4980945;28;20132;-71
2023/12/15 10:56:37;;;;;;;44.13;13.77;;;7.80;99.90;;;;;;4978072;28;20420;-71
2023/12/15 10:59:05;;;;;;;49.13;13.80;;;7.80;99.90;;;;;;5016490;28;20049;-71
2023/12/15 11:01:33;;;;;;;51.13;14.25;;;7.80;99.90;;;;;;4994387;28;20058;-72
2023/12/15 11:03:59;;;;;;;48.60;13.95;;;7.90;99.90;;;;;;4962442;28;20397;-73
2023/12/15 11:06:31;;;;;;;47.78;12.18;;;7.90;99.90;;;;;;5014088;28;20046;-73
2023/12/15 11:09:04;;;;;;;44.70;12.70;;;8.00;99.90;;;;;;4973114;28;20038;-72
2023/12/15 11:11:31;;;;;;;41.83;11.52;;;8.00;99.90;;;;;;4962983;28;20042;-72
2023/12/15 11:14:04;;;;;;;39.90;11.95;;;8.10;99.90;;;;;;4972364;28;20042;-72
2023/12/15 11:16:35;;;;;;;39.95;12.20;;;8.10;99.90;;;;;;4995867;28;20050;-74
2023/12/15 11:19:01;;;;;;;44.83;12.43;;;8.10;99.90;;;;;;5012658;28;20050;-72
2023/12/15 11:21:28;;;;;;;43.42;10.80;;;8.10;99.90;;;;;;4973870;28;20046;-74
2023/12/15 11:23:58;;;;;;;43.40;11.75;;;8.20;99.90;;;;;;4979983;28;20038;-74
2023/12/15 11:26:27;;;;;;;46.30;11.57;;;8.20;99.90;;;;;;4961164;28;20157;-74
2023/12/15 11:29:07;;;;;;;49.78;12.88;;;8.20;99.90;;;;;;4967326;28;20053;-74
2023/12/15 11:31:33;;;;;;;38.75;11.40;;;8.30;99.90;;;;;;4995635;28;20043;-75
2023/12/15 11:34:03;;;;;;;34.65;10.65;;;8.30;99.90;;;;;;5010405;28;20089;-76
2023/12/15 11:36:38;;;;;;;46.00;11.48;;;8.30;99.90;;;;;;4991275;28;20126;-75
2023/12/15 11:39:04;;;;;;;35.95;10.48;;;8.30;99.90;;;;;;4997368;28;20058;-74
2023/12/15 11:41:31;;;;;;;35.05;9.55;;;8.30;99.90;;;;;;5016189;28;20406;-74
2023/12/15 11:43:58;;;;;;;41.40;10.50;;;8.40;99.90;;;;;;4980516;28;20050;-74
2023/12/15 11:46:25;;;;;;;39.53;10.38;;;8.40;99.90;;;;;;4981441;28;20133;-74
2023/12/15 11:48:51;;;;;;;34.90;9.70;;;8.40;99.90;;;;;;4967374;28;20049;-74
2023/12/15 11:51:18;;;;;;;39.53;11.18;;;8.40;99.90;;;;;;4966642;28;20038;-77
2023/12/15 11:53:47;;;;;;;38.60;10.13;;;8.60;99.90;;;;;;4985063;28;20093;-77
2023/12/15 11:56:14;;;;;;;37.25;9.57;;;8.60;99.90;;;;;;4966714;28;20043;-78
2023/12/15 11:58:40;;;;;;;36.47;9.75;;;8.60;99.90;;;;;;4978723;28;20076;-77
2023/12/15 12:01:08;;;;;;;34.53;9.60;;;8.60;99.90;;;;;;4997287;28;20411;-78
2023/12/15 12:03:34;;;;;;;37.63;10.52;;;8.60;99.90;;;;;;5000070;28;20080;-74
2023/12/15 12:06:05;;;;;;;37.13;10.70;;;8.70;99.90;;;;;;4963792;28;20097;-74
2023/12/15 12:08:33;;;;;;;36.22;9.25;;;8.80;99.90;;;;;;5013769;28;20418;-74
2023/12/15 12:10:59;;;;;;;40.22;9.02;;;8.70;99.90;;;;;;4963755;28;20049;-74
2023/12/15 12:13:37;;;;;;;33.78;8.82;;;8.80;99.90;;;;;;4963237;28;20042;-74
2023/12/15 12:16:03;;;;;;;32.05;8.77;;;8.80;99.90;;;;;;4998403;28;20099;-74
2023/12/15 12:18:31;;;;;;;43.03;9.35;;;8.80;99.90;;;;;;4981855;28;20403;-74
2023/12/15 12:21:00;;;;;;;28.38;8.57;;;8.80;99.90;;;;;;4999289;28;20042;-74
2023/12/15 12:23:29;;;;;;;26.33;7.90;;;8.80;99.90;;;;;;5012894;28;20074;-78
2023/12/15 12:25:56;;;;;;;30.83;8.33;;;8.90;99.90;;;;;;4987266;28;20142;-78